WetterOnline ( https://www.wetteronline.de )

Wetter aktuell Darß/Zingst

Aktuelles Wetter: Barth (7m)

6-stündlich | Neueste Meldungen
Ortszeit Temperatur Wetter
Sa, 25.05. 20:00 12.9° C leicht bewölkt
Sa, 25.05. 14:00 13.0° C bedeckt
Sa, 25.05. 8:00 11.2° C bedeckt
Sa, 25.05. 2:00 11.6° C bedeckt
Fr, 24.05. 20:00 14.9° C bedeckt
Fr, 24.05. 14:00 20.5° C leicht bewölkt
Fr, 24.05. 8:00 13.9° C wolkig
Fr, 24.05. 2:00 10.3° C wolkenlos
Ortszeit Temperatur Wetter
Sa, 25.05. 23:30 11.7° C bedeckt
Sa, 25.05. 23:20 11.7° C bedeckt
Sa, 25.05. 23:10 11.7° C bedeckt
Sa, 25.05. 23:00 11.7° C bedeckt
Sa, 25.05. 22:50 11.7° C bedeckt
Sa, 25.05. 22:40 11.5° C bedeckt
Sa, 25.05. 22:30 10.9° C bewölkt
Sa, 25.05. 22:00 10.6° C leicht bewölkt
Sa, 25.05. 21:30 11.0° C wolkenlos
Sa, 25.05. 21:00 11.5° C wolkenlos
Sa, 25.05. 20:30 12.1° C wolkenlos
Ortszeit Relative Feuchte Sichtweite
Sa, 25.05. 20:00 74% 27 km
Sa, 25.05. 14:00 70% 40 km
Sa, 25.05. 8:00 72% 65 km
Sa, 25.05. 2:00 68% 70 km
Fr, 24.05. 20:00 67% 70 km
Fr, 24.05. 14:00 40% 22 km
Fr, 24.05. 8:00 69% 55 km
Fr, 24.05. 2:00 78% 30 km
Ortszeit Relative Feuchte Sichtweite
Sa, 25.05. 23:30 69% 70 km
Sa, 25.05. 23:20 69% -
Sa, 25.05. 23:10 68% -
Sa, 25.05. 23:00 67% 70 km
Sa, 25.05. 22:50 67% -
Sa, 25.05. 22:40 69% -
Sa, 25.05. 22:30 77% 55 km
Sa, 25.05. 22:00 80% 50 km
Sa, 25.05. 21:30 79% 45 km
Sa, 25.05. 21:00 77% 45 km
Sa, 25.05. 20:30 76% 25 km
Ortszeit Niederschlagsmenge Niederschlagsart
Sa, 25.05. 20:00 0.1 l/m2 in 12 Std. -
Sa, 25.05. 14:00 0.1 l/m2 in 6 Std. Regen
Sa, 25.05. 8:00 0.0 l/m2 in 12 Std. -
Sa, 25.05. 2:00 0.0 l/m2 in 6 Std. -
Fr, 24.05. 20:00 0.0 l/m2 in 12 Std. -
Fr, 24.05. 14:00 0.1 l/m2 in 6 Std. Sprühregen
Fr, 24.05. 8:00 0.0 l/m2 in 12 Std. -
Fr, 24.05. 2:00 0.0 l/m2 in 6 Std. -
Ortszeit Niederschlagsmenge Niederschlagsart
Sa, 25.05. 23:30 0.0 l/m2 in 1 Std. -
Sa, 25.05. 23:20 keine Meldung -
Sa, 25.05. 23:10 keine Meldung -
Sa, 25.05. 23:00 0.0 l/m2 in 1 Std. -
Sa, 25.05. 22:50 keine Meldung -
Sa, 25.05. 22:40 keine Meldung -
Sa, 25.05. 22:30 0.0 l/m2 in 1 Std. -
Sa, 25.05. 22:00 0.0 l/m2 in 1 Std. -
Sa, 25.05. 21:30 0.0 l/m2 in 1 Std. -
Sa, 25.05. 21:00 0.0 l/m2 in 1 Std. -
Sa, 25.05. 20:30 0.0 l/m2 in 1 Std. -
Ortszeit Stärke Spitze Richtung
km/h Bft. km/h Grad Sektor
Sa, 25.05. 20:00 22 4 46 270° W
Sa, 25.05. 14:00 24 4 39 270° W
Sa, 25.05. 8:00 15 3 33 290° W
Sa, 25.05. 2:00 18 3 36 290° W
Fr, 24.05. 20:00 19 3 48 280° W
Fr, 24.05. 14:00 28 4 43 250° W
Fr, 24.05. 8:00 14 3 22 250° W
Fr, 24.05. 2:00 7 2 14 170° S
Ortszeit Stärke Spitze Richtung
km/h Bft. km/h Grad Sektor
Sa, 25.05. 23:30 18 3 40 260° W
Sa, 25.05. 23:20 18 3 - 260° W
Sa, 25.05. 23:10 22 4 - 270° W
Sa, 25.05. 23:00 24 4 37 280° W
Sa, 25.05. 22:50 24 4 - 280° W
Sa, 25.05. 22:40 22 4 - 280° W
Sa, 25.05. 22:30 19 3 33 280° W
Sa, 25.05. 22:00 17 3 33 280° W
Sa, 25.05. 21:30 18 3 32 280° W
Sa, 25.05. 21:00 20 4 37 280° W
Sa, 25.05. 20:30 22 4 36 280° W
Ortszeit Untergrenze Bedeckung Gattung
total tief tief mittel hoch
Sa, 25.05. 20:00 900 m 3/8 3/8 - - -
Sa, 25.05. 14:00 630 m 8/8 8/8 - - -
Sa, 25.05. 8:00 720 m 8/8 8/8 - - -
Sa, 25.05. 2:00 990 m 8/8 8/8 - - -
Fr, 24.05. 20:00 3300 m 8/8 8/8 - - -
Fr, 24.05. 14:00 9000 m 8/8 0/8 - - -
Fr, 24.05. 8:00 2100 m 5/8 5/8 - - -
Fr, 24.05. 2:00 - 0/8 0/8 - - -
Ortszeit Bedeckungsgrad in Achtel und Wolkenuntergrenze
Sa, 25.05. 23:30 8(960m)
Sa, 25.05. 23:20 8(960m)
Sa, 25.05. 23:10 8(960m)
Sa, 25.05. 23:00 8(930m) 8(9000m)
Sa, 25.05. 22:50 8(930m) 8(9000m)
Sa, 25.05. 22:40 8(960m) 8(9000m)
Sa, 25.05. 22:30 5(960m) 8(9000m) 8(9000m)
Sa, 25.05. 22:00 6(9000m)
Sa, 25.05. 21:30 2(9000m)
Sa, 25.05. 21:00 keine Wolken
Sa, 25.05. 20:30 keine Wolken
Ortszeit Luftdruck NN (hPa) Tendenz (hPa in 3 Std.)
Sa, 25.05. 20:00 1014 - 0,2
Sa, 25.05. 14:00 1014 + 0,3
Sa, 25.05. 8:00 1013 + 0,8
Sa, 25.05. 2:00 1012 + 0,3
Fr, 24.05. 20:00 1011 0,0
Fr, 24.05. 14:00 1012 - 1,5
Fr, 24.05. 8:00 1014 - 0,4
Fr, 24.05. 2:00 1015 - 1,0
Ortszeit Luftdruck NN (hPa) Tendenz (hPa in 3 Std.)
Sa, 25.05. 23:30 1014 + 0,3
Sa, 25.05. 23:20 1014 keine Meldung
Sa, 25.05. 23:10 1014 keine Meldung
Sa, 25.05. 23:00 1014 + 0,2
Sa, 25.05. 22:50 1014 keine Meldung
Sa, 25.05. 22:40 1014 keine Meldung
Sa, 25.05. 22:30 1014 + 0,2
Sa, 25.05. 22:00 1014 + 0,3
Sa, 25.05. 21:30 1014 + 0,2
Sa, 25.05. 21:00 1014 + 0,1
Sa, 25.05. 20:30 1014 - 0,1
Ortszeit Schneehöhe (cm)
Sa, 25.05. 20:00 -
Sa, 25.05. 14:00 -
Sa, 25.05. 8:00 -
Sa, 25.05. 2:00 -
Fr, 24.05. 20:00 -
Fr, 24.05. 14:00 -
Fr, 24.05. 8:00 -
Fr, 24.05. 2:00 -
Ortszeit Schneehöhe (cm)
Sa, 25.05. 23:30 -
Sa, 25.05. 23:20 -
Sa, 25.05. 23:10 -
Sa, 25.05. 23:00 -
Sa, 25.05. 22:50 -
Sa, 25.05. 22:40 -
Sa, 25.05. 22:30 -
Sa, 25.05. 22:00 -
Sa, 25.05. 21:30 -
Sa, 25.05. 21:00 -
Sa, 25.05. 20:30 -
Link zu dieser Seite / Seite empfehlen

Das Wetter in ...